Time;durP1;ratioP1;P1;durP2;ratioP2;P2;SDS_P1;SDS_P2;PMS_P1;PMS_P2;Temp;Humidity;BMP_temperature;BMP_pressure;BME280_temperature;BME280_humidity;BME280_pressure;Samples;Min_cycle;Max_cycle;Signal;HPM_P1;HPM_P2
2021/05/19 00:02:16;;;;;;;16.75;13.77;;;;;;;15.88;47.64;100887.91;5016594;28;20033;-79
2021/05/19 00:04:42;;;;;;;15.20;12.88;;;;;;;15.73;47.79;100891.28;5033455;28;20528;-79
2021/05/19 00:07:07;;;;;;;14.98;12.80;;;;;;;15.69;47.95;100891.75;5032390;28;20022;-78
2021/05/19 00:09:33;;;;;;;14.63;11.95;;;;;;;15.66;48.17;100881.22;5013373;28;20146;-78
2021/05/19 00:11:58;;;;;;;18.85;14.00;;;;;;;15.76;47.87;100890.94;5030581;28;20033;-79
2021/05/19 00:14:23;;;;;;;14.45;12.48;;;;;;;15.78;47.66;100886.19;5012245;28;20025;-78
2021/05/19 00:16:49;;;;;;;17.27;12.35;;;;;;;15.62;47.97;100883.41;5032479;28;20089;-78
2021/05/19 00:19:16;;;;;;;15.35;13.60;;;;;;;15.77;47.58;100898.06;5032440;28;20079;-78
2021/05/19 00:21:42;;;;;;;19.50;14.27;;;;;;;15.65;47.76;100890.38;5032606;28;20060;-78
2021/05/19 00:24:08;;;;;;;14.52;12.43;;;;;;;15.96;46.86;100896.06;5015194;28;20144;-79
2021/05/19 00:26:33;;;;;;;12.57;10.40;;;;;;;15.83;47.19;100894.69;5034678;28;20042;-79
2021/05/19 00:28:59;;;;;;;13.20;11.02;;;;;;;15.53;47.92;100893.38;5018405;28;20450;-79
2021/05/19 00:31:30;;;;;;;14.63;11.68;;;;;;;15.77;47.21;100891.78;5017064;28;20385;-79
2021/05/19 00:33:56;;;;;;;15.50;12.70;;;;;;;15.74;47.04;100889.41;5016290;28;20131;-79
2021/05/19 00:36:21;;;;;;;19.27;13.23;;;;;;;15.72;47.37;100891.44;5035250;28;20038;-79
2021/05/19 00:38:46;;;;;;;13.13;11.65;;;;;;;15.49;47.96;100894.72;5036527;28;20029;-79
2021/05/19 00:41:12;;;;;;;14.88;12.15;;;;;;;15.17;49.06;100896.28;5035233;28;20044;-78
2021/05/19 00:43:39;;;;;;;28.15;14.25;;;;;;;15.09;49.35;100888.13;5035345;28;20032;-79
2021/05/19 00:46:06;;;;;;;15.05;12.15;;;;;;;14.78;50.56;100889.63;5019556;28;20056;-79
2021/05/19 00:48:32;;;;;;;16.08;13.02;;;;;;;15.01;50.01;100889.94;5036536;28;20037;-79
2021/05/19 00:50:58;;;;;;;18.92;13.50;;;;;;;15.02;50.00;100884.34;5034844;28;20036;-78
2021/05/19 00:53:23;;;;;;;18.65;14.30;;;;;;;15.31;48.93;100891.28;5035977;28;20428;-79
2021/05/19 00:55:49;;;;;;;16.70;13.45;;;;;;;15.00;50.17;100894.50;5036618;28;20040;-79
2021/05/19 00:58:14;;;;;;;20.13;15.27;;;;;;;15.07;50.02;100897.41;5035673;28;20033;-78
2021/05/19 01:00:40;;;;;;;27.63;20.58;;;;;;;15.04;50.19;100893.16;5034985;28;20052;-79
2021/05/19 01:03:06;;;;;;;30.30;21.67;;;;;;;15.22;49.61;100892.25;5033819;28;20141;-79
2021/05/19 01:10:42;;;;;;;13.00;11.35;;;;;;;14.87;50.59;100894.06;5037493;28;20037;-78
2021/05/19 01:13:08;;;;;;;16.65;13.60;;;;;;;15.09;50.07;100892.66;5017901;28;20478;-78
2021/05/19 01:15:34;;;;;;;15.82;13.15;;;;;;;14.93;50.66;100888.84;5035984;28;20040;-78
2021/05/19 01:18:02;;;;;;;20.73;15.25;;;;;;;14.66;51.27;100892.59;5016496;28;20029;-78
2021/05/19 01:20:27;;;;;;;15.88;12.88;;;;;;;15.16;50.26;100889.16;5034477;28;20033;-79
2021/05/19 01:22:53;;;;;;;16.88;13.93;;;;;;;15.03;49.92;100888.78;5033201;28;20139;-78
2021/05/19 01:25:18;;;;;;;14.60;12.02;;;;;;;14.68;51.60;100895.97;5014581;28;20057;-77
2021/05/19 01:27:54;;;;;;;15.30;11.73;;;;;;;15.01;50.83;100896.19;5032341;28;20026;-78
2021/05/19 01:30:20;;;;;;;21.52;16.17;;;;;;;14.84;51.24;100889.81;5018972;28;20400;-78
2021/05/19 01:32:46;;;;;;;18.05;13.60;;;;;;;14.74;51.80;100893.66;5017713;28;20035;-78
2021/05/19 01:35:13;;;;;;;15.70;13.57;;;;;;;14.50;52.40;100895.13;5034163;28;20025;-79
2021/05/19 01:37:39;;;;;;;17.98;11.95;;;;;;;15.00;50.87;100899.06;5014828;28;20108;-79
2021/05/19 01:40:05;;;;;;;19.45;14.35;;;;;;;14.82;51.35;100899.13;5032926;28;20570;-79
2021/05/19 01:42:31;;;;;;;14.40;11.48;;;;;;;15.02;51.02;100897.03;5032515;28;20040;-79
2021/05/19 01:44:56;;;;;;;16.13;14.10;;;;;;;14.70;51.80;100895.84;5032146;28;20030;-79
2021/05/19 01:47:40;;;;;;;15.02;12.68;;;;;;;14.98;51.02;100895.69;5014318;28;20487;-78
2021/05/19 01:50:08;;;;;;;14.35;12.73;;;;;;;15.10;50.63;100899.81;5014318;28;20164;-79
2021/05/19 01:52:35;;;;;;;15.60;13.48;;;;;;;15.21;50.21;100896.78;5036561;28;20029;-79
2021/05/19 01:55:01;;;;;;;19.33;14.05;;;;;;;15.16;50.42;100902.72;5035356;28;20552;-79
2021/05/19 01:57:27;;;;;;;18.17;13.85;;;;;;;15.24;50.23;100906.47;5035764;28;20048;-79
2021/05/19 01:59:52;;;;;;;15.32;12.65;;;;;;;15.23;50.24;100904.78;5016986;28;20519;-79
2021/05/19 02:02:22;;;;;;;19.50;14.25;;;;;;;14.85;51.51;100902.38;5015344;28;20032;-79
2021/05/19 02:04:47;;;;;;;15.07;13.48;;;;;;;15.29;49.93;100902.25;5014716;28;20029;-79
2021/05/19 02:07:13;;;;;;;16.67;14.27;;;;;;;15.44;49.71;100907.91;5032553;28;20029;-79
2021/05/19 02:09:38;;;;;;;18.73;15.90;;;;;;;15.32;49.60;100910.06;5034724;28;20022;-79
2021/05/19 02:12:04;;;;;;;15.05;13.45;;;;;;;15.40;49.29;100911.97;5034717;28;20025;-79
2021/05/19 02:14:29;;;;;;;17.73;15.48;;;;;;;15.57;48.69;100911.00;5017341;28;20033;-79
2021/05/19 02:16:54;;;;;;;17.50;15.05;;;;;;;15.60;48.37;100910.66;5035716;28;20056;-78
2021/05/19 02:19:19;;;;;;;21.85;16.25;;;;;;;15.85;47.55;100910.78;5034363;28;20105;-79
2021/05/19 02:21:47;;;;;;;14.40;12.30;;;;;;;15.76;47.92;100907.22;5014625;28;20064;-79
2021/05/19 02:24:14;;;;;;;21.40;14.45;;;;;;;15.67;48.04;100905.47;5032527;28;20443;-79
2021/05/19 02:26:40;;;;;;;15.85;14.20;;;;;;;15.78;47.47;100910.59;5033042;28;20029;-79
2021/05/19 02:29:06;;;;;;;16.92;14.00;;;;;;;15.71;46.99;100900.59;5035465;28;20064;-79
2021/05/19 02:31:32;;;;;;;22.20;17.42;;;;;;;15.76;46.92;100903.63;5033486;28;20474;-79
2021/05/19 02:33:58;;;;;;;20.65;15.40;;;;;;;15.62;47.00;100911.38;5032797;28;20529;-79
2021/05/19 02:36:24;;;;;;;19.50;16.10;;;;;;;15.65;47.09;100915.63;5036713;28;20063;-79
2021/05/19 02:38:50;;;;;;;20.65;16.33;;;;;;;15.60;46.90;100912.53;5016757;28;20128;-79
2021/05/19 02:41:15;;;;;;;17.83;15.32;;;;;;;15.52;47.02;100905.25;5034119;28;20113;-79
2021/05/19 02:43:40;;;;;;;24.30;18.42;;;;;;;15.40;47.47;100906.56;5033486;28;20044;-80
2021/05/19 02:46:06;;;;;;;23.50;18.75;;;;;;;15.14;48.62;100906.59;5032278;28;20493;-79
2021/05/19 02:48:32;;;;;;;26.35;19.33;;;;;;;15.32;46.96;100903.78;5034041;28;20715;-79
2021/05/19 02:50:58;;;;;;;25.05;19.50;;;;;;;15.16;48.56;100904.56;5034088;28;20397;-79
2021/05/19 02:53:23;;;;;;;26.27;19.73;;;;;;;15.34;48.21;100907.19;5033671;28;20037;-79
2021/05/19 02:55:49;;;;;;;25.33;19.83;;;;;;;15.24;48.66;100906.47;5014295;28;20036;-79
2021/05/19 02:58:14;;;;;;;24.65;19.48;;;;;;;15.29;48.31;100907.69;5031712;28;20032;-79
2021/05/19 03:00:40;;;;;;;20.92;18.15;;;;;;;15.27;48.35;100906.97;5036408;28;20029;-79
2021/05/19 03:03:05;;;;;;;20.48;15.75;;;;;;;15.26;48.90;100909.88;5035552;28;20116;-79
2021/05/19 03:05:31;;;;;;;16.95;14.95;;;;;;;15.16;49.21;100913.53;5033197;28;20033;-79
2021/05/19 03:07:57;;;;;;;19.90;17.17;;;;;;;15.40;48.48;100912.81;5032377;28;20029;-79
2021/05/19 03:10:22;;;;;;;20.23;16.35;;;;;;;15.20;49.40;100916.78;5016054;28;20045;-80
2021/05/19 03:12:50;;;;;;;20.48;15.77;;;;;;;15.37;49.12;100910.44;5032135;28;20573;-79
2021/05/19 03:15:17;;;;;;;20.58;16.83;;;;;;;15.63;48.22;100917.63;5031569;28;20026;-79
2021/05/19 03:17:42;;;;;;;22.63;17.02;;;;;;;15.30;49.46;100912.06;5031853;28;20469;-78
2021/05/19 03:20:08;;;;;;;20.02;16.38;;;;;;;15.33;49.35;100914.47;5035195;28;20084;-79
2021/05/19 03:22:33;;;;;;;18.30;12.25;;;;;;;15.59;48.70;100917.13;5015823;28;20052;-80
2021/05/19 03:24:59;;;;;;;17.90;15.32;;;;;;;15.55;48.86;100918.47;5015174;28;20108;-80
2021/05/19 03:27:24;;;;;;;17.10;14.15;;;;;;;15.51;49.54;100921.66;5015582;28;20029;-80
2021/05/19 03:29:49;;;;;;;17.48;15.10;;;;;;;15.65;49.28;100922.91;5014992;28;20040;-80
2021/05/19 03:32:15;;;;;;;17.63;15.10;;;;;;;15.79;48.79;100928.59;5031904;28;20378;-80
2021/05/19 03:34:40;;;;;;;14.65;12.77;;;;;;;15.79;48.20;100925.88;5012967;28;20492;-80
2021/05/19 03:37:06;;;;;;;14.50;12.57;;;;;;;15.91;48.05;100926.38;5030443;28;20473;-80
2021/05/19 03:39:31;;;;;;;17.05;11.98;;;;;;;16.11;47.79;100921.53;5020148;28;20026;-80
2021/05/19 03:41:57;;;;;;;16.58;11.93;;;;;;;15.96;48.09;100924.03;5015929;28;20049;-80
2021/05/19 03:44:22;;;;;;;20.05;14.35;;;;;;;16.13;47.62;100913.19;5034550;28;20033;-80
2021/05/19 03:46:48;;;;;;;18.25;13.60;;;;;;;16.16;47.53;100911.03;5033122;28;20033;-79
2021/05/19 03:49:14;;;;;;;13.18;10.88;;;;;;;16.04;47.83;100915.91;5031448;28;20029;-80
2021/05/19 03:51:40;;;;;;;15.25;13.65;;;;;;;16.00;47.79;100909.09;5030686;28;20051;-79
2021/05/19 03:54:05;;;;;;;16.05;13.63;;;;;;;16.23;47.46;100912.03;5029998;28;20040;-79
2021/05/19 03:56:31;;;;;;;19.33;13.88;;;;;;;16.01;47.75;100909.97;5031019;28;20373;-79
2021/05/19 03:58:56;;;;;;;17.45;14.00;;;;;;;16.29;46.95;100911.34;5033942;28;20033;-79
2021/05/19 04:01:22;;;;;;;15.70;13.73;;;;;;;16.33;47.00;100905.59;5033513;28;20052;-79
2021/05/19 04:03:50;;;;;;;17.75;14.18;;;;;;;16.20;47.16;100914.25;5033570;28;20037;-79
2021/05/19 04:06:16;;;;;;;19.67;14.18;;;;;;;16.29;46.92;100910.53;5030953;28;20038;-79
2021/05/19 04:08:42;;;;;;;15.88;12.82;;;;;;;16.07;47.69;100910.16;5030732;28;20041;-79
2021/05/19 04:11:09;;;;;;;16.92;15.10;;;;;;;15.92;48.20;100917.25;5030300;28;20113;-79
2021/05/19 04:13:35;;;;;;;13.93;12.52;;;;;;;15.87;48.44;100907.91;5029668;28;20055;-79
2021/05/19 04:16:01;;;;;;;15.25;13.50;;;;;;;16.16;47.62;100916.44;5029442;28;20026;-79
2021/05/19 04:18:26;;;;;;;20.25;15.98;;;;;;;16.18;47.74;100903.53;5029323;28;20435;-79
2021/05/19 04:20:52;;;;;;;14.85;12.02;;;;;;;16.16;47.77;100921.00;5034268;28;20034;-80
2021/05/19 04:23:18;;;;;;;17.27;13.15;;;;;;;15.81;49.08;100915.69;5015238;28;20049;-80
2021/05/19 04:25:43;;;;;;;17.30;14.77;;;;;;;16.18;48.48;100921.69;5031714;28;20119;-79
2021/05/19 04:28:10;;;;;;;16.40;14.63;;;;;;;16.45;47.68;100921.38;5030619;28;20028;-79
2021/05/19 04:30:36;;;;;;;14.88;13.10;;;;;;;16.09;49.07;100927.09;5011703;28;20044;-79
2021/05/19 04:33:01;;;;;;;17.38;15.30;;;;;;;15.72;49.50;100927.53;5029490;28;20438;-79
2021/05/19 04:35:27;;;;;;;16.02;13.40;;;;;;;16.15;49.08;100930.16;5011243;28;20110;-78
2021/05/19 04:37:53;;;;;;;17.77;13.73;;;;;;;16.50;48.02;100937.16;5029457;28;20474;-79
2021/05/19 04:40:18;;;;;;;14.25;12.85;;;;;;;16.74;47.53;100929.00;5016337;28;20045;-79
2021/05/19 04:42:43;;;;;;;13.68;12.20;;;;;;;16.93;47.23;100933.25;5033521;28;20025;-80
2021/05/19 04:45:09;;;;;;;14.68;12.30;;;;;;;17.02;46.77;100931.38;5014907;28;20037;-79
2021/05/19 04:47:35;;;;;;;14.20;12.77;;;;;;;17.07;46.79;100937.09;5031871;28;20440;-80
2021/05/19 04:50:00;;;;;;;14.85;12.77;;;;;;;16.62;47.64;100933.09;5031202;28;20034;-80
2021/05/19 04:52:26;;;;;;;17.50;13.52;;;;;;;16.87;47.41;100931.22;5029549;28;20029;-79
2021/05/19 04:54:51;;;;;;;16.65;13.05;;;;;;;16.79;47.62;100942.09;5011260;28;20389;-80
2021/05/19 04:57:17;;;;;;;18.60;11.32;;;;;;;17.01;47.35;100937.81;5013767;28;20041;-80
2021/05/19 04:59:43;;;;;;;15.88;12.68;;;;;;;17.23;46.82;100938.94;5015993;28;20021;-79
2021/05/19 05:02:09;;;;;;;15.15;12.48;;;;;;;17.17;46.92;100945.06;5033566;28;20037;-79
2021/05/19 05:04:34;;;;;;;12.00;10.80;;;;;;;17.22;46.63;100946.25;5014756;28;20136;-79
2021/05/19 05:07:01;;;;;;;14.32;12.73;;;;;;;17.30;46.76;100942.66;5031071;28;20499;-79
2021/05/19 05:09:27;;;;;;;13.95;12.52;;;;;;;17.31;46.84;100947.06;5012109;28;20068;-80
2021/05/19 05:11:52;;;;;;;13.07;11.68;;;;;;;16.95;47.24;100943.94;5029537;28;20029;-79
2021/05/19 05:14:18;;;;;;;11.82;10.52;;;;;;;17.03;47.34;100943.09;5044730;28;20037;-80
2021/05/19 05:16:43;;;;;;;13.07;10.93;;;;;;;16.89;47.80;100953.59;5014241;28;20504;-80
2021/05/19 05:19:08;;;;;;;14.20;12.00;;;;;;;17.02;47.58;100944.06;5039591;28;20021;-80
2021/05/19 05:21:34;;;;;;;12.85;11.10;;;;;;;17.12;46.95;100950.19;5055524;28;20029;-79
2021/05/19 05:24:00;;;;;;;14.60;13.07;;;;;;;17.08;47.39;100948.81;5051003;28;20066;-79
2021/05/19 05:26:26;;;;;;;12.25;10.90;;;;;;;16.89;47.94;100948.19;5046278;28;20365;-79
2021/05/19 05:28:52;;;;;;;11.48;10.27;;;;;;;16.66;48.51;100953.44;5056794;28;20163;-81
2021/05/19 05:31:18;;;;;;;12.43;11.13;;;;;;;16.71;48.31;100958.34;5037788;28;20480;-79
2021/05/19 05:33:43;;;;;;;14.48;11.70;;;;;;;17.08;47.66;100952.41;5038863;28;20024;-80
2021/05/19 05:36:08;;;;;;;13.38;11.98;;;;;;;16.93;48.09;100949.53;5054842;28;20037;-80
2021/05/19 05:38:34;;;;;;;13.32;11.93;;;;;;;16.98;48.05;100954.44;5031114;28;20043;-79
2021/05/19 05:40:59;;;;;;;14.07;10.50;;;;;;;16.76;48.11;100959.56;5038606;28;20033;-78
2021/05/19 05:43:25;;;;;;;12.57;9.13;;;;;;;16.37;49.84;100955.81;5043231;28;20485;-79
2021/05/19 05:45:50;;;;;;;11.10;9.43;;;;;;;16.09;50.55;100959.66;5044264;28;20029;-79
2021/05/19 05:48:15;;;;;;;12.90;9.98;;;;;;;16.53;49.27;100953.97;5056072;28;20533;-79
2021/05/19 05:50:41;;;;;;;14.00;11.13;;;;;;;16.59;49.31;100954.28;5039283;28;20638;-79
2021/05/19 05:53:06;;;;;;;15.15;10.63;;;;;;;16.71;49.03;100963.78;5040659;28;20402;-79
2021/05/19 05:55:31;;;;;;;11.93;10.45;;;;;;;16.69;48.74;100961.25;5023080;28;20032;-79
2021/05/19 05:57:57;;;;;;;15.30;10.38;;;;;;;16.87;47.83;100961.09;5045937;28;20030;-79
2021/05/19 06:00:22;;;;;;;15.40;10.65;;;;;;;16.58;49.21;100963.44;5038072;28;20062;-79
2021/05/19 06:02:47;;;;;;;11.82;10.43;;;;;;;16.94;48.01;100958.53;5049636;28;20041;-79
2021/05/19 06:05:14;;;;;;;10.10;8.93;;;;;;;16.85;47.87;100974.00;5033655;28;20032;-79
2021/05/19 06:07:39;;;;;;;10.45;9.23;;;;;;;16.89;47.87;100969.91;5043127;28;20025;-79
2021/05/19 06:10:06;;;;;;;12.75;10.88;;;;;;;16.62;47.94;100962.09;5039812;28;20029;-79
2021/05/19 06:12:31;;;;;;;11.93;10.05;;;;;;;16.58;47.95;100968.88;5050094;28;20040;-79
2021/05/19 06:14:57;;;;;;;12.13;10.90;;;;;;;16.40;48.74;100959.03;5019166;28;20040;-78
2021/05/19 06:17:23;;;;;;;10.82;9.15;;;;;;;16.46;47.90;100973.78;5044438;28;20029;-79
2021/05/19 06:19:48;;;;;;;13.18;9.20;;;;;;;16.85;47.17;100968.56;5022090;28;20029;-78
2021/05/19 06:22:13;;;;;;;7.07;6.38;;;;;;;16.85;45.91;100973.16;5034681;28;20060;-78
2021/05/19 06:24:39;;;;;;;8.57;7.68;;;;;;;17.15;45.60;100972.44;5035068;28;20029;-79
2021/05/19 06:27:05;;;;;;;10.48;7.80;;;;;;;17.25;45.06;100979.53;5032705;28;20086;-78
2021/05/19 06:29:30;;;;;;;8.93;8.02;;;;;;;17.27;45.64;100972.91;5049589;28;20021;-78
2021/05/19 06:31:56;;;;;;;9.10;8.15;;;;;;;16.89;46.18;100985.38;5025477;28;20083;-78
2021/05/19 06:34:21;;;;;;;8.73;7.50;;;;;;;17.35;45.36;100977.47;5044819;28;20028;-78
2021/05/19 06:36:47;;;;;;;9.00;8.20;;;;;;;17.98;44.00;100981.16;5051744;28;20032;-78
2021/05/19 06:39:14;;;;;;;8.07;7.35;;;;;;;17.84;43.71;100978.16;5034996;28;20033;-78
2021/05/19 06:41:42;;;;;;;8.68;7.85;;;;;;;17.65;44.35;100992.16;5052505;28;20029;-78
2021/05/19 06:44:09;;;;;;;10.05;9.15;;;;;;;17.76;44.95;100993.66;5052174;28;20033;-78
2021/05/19 06:46:35;;;;;;;9.57;8.68;;;;;;;17.78;45.06;100989.75;5033507;28;20039;-78
2021/05/19 06:49:02;;;;;;;11.68;9.70;;;;;;;17.65;45.72;100993.00;5051108;28;20032;-78
2021/05/19 06:51:28;;;;;;;10.07;8.98;;;;;;;17.44;46.41;101000.91;5028871;28;20037;-79
2021/05/19 06:53:53;;;;;;;10.52;9.43;;;;;;;17.54;46.73;100997.97;5024840;28;20025;-80
2021/05/19 06:56:19;;;;;;;10.73;9.73;;;;;;;17.13;47.24;101001.63;5054406;28;20065;-80
2021/05/19 06:58:44;;;;;;;9.57;8.57;;;;;;;17.50;46.42;100999.34;5036211;28;20025;-80
2021/05/19 07:01:09;;;;;;;11.00;8.88;;;;;;;17.86;45.71;100999.75;5053623;28;20060;-80
2021/05/19 07:03:35;;;;;;;9.13;8.23;;;;;;;18.01;45.43;100997.13;5053170;28;20068;-79
2021/05/19 07:06:00;;;;;;;9.68;7.10;;;;;;;17.87;45.15;100996.00;5036367;28;20095;-79
2021/05/19 07:08:25;;;;;;;7.43;6.72;;;;;;;17.53;44.87;100994.41;5053180;28;20222;-79
2021/05/19 07:10:51;;;;;;;6.88;6.28;;;;;;;17.49;44.89;100992.22;5044371;28;20037;-80
2021/05/19 07:13:18;;;;;;;7.53;6.82;;;;;;;17.65;42.64;100990.28;5015614;28;20039;-80
2021/05/19 07:15:45;;;;;;;9.80;7.10;;;;;;;17.76;43.70;100991.78;5049347;28;20633;-80
2021/05/19 07:18:11;;;;;;;8.98;7.75;;;;;;;17.75;44.13;100998.22;5018067;28;20043;-80
2021/05/19 07:20:37;;;;;;;9.80;7.20;;;;;;;17.86;43.95;100997.88;5044276;28;20397;-80
2021/05/19 07:23:03;;;;;;;8.80;7.40;;;;;;;17.95;43.21;101000.56;5042921;28;20040;-80
2021/05/19 07:25:28;;;;;;;9.10;8.20;;;;;;;17.79;43.54;100998.78;5036536;28;20112;-80
2021/05/19 07:27:54;;;;;;;7.18;6.53;;;;;;;17.75;42.81;100997.38;5029248;28;20064;-80
2021/05/19 07:30:19;;;;;;;7.30;6.05;;;;;;;18.50;41.94;100994.94;5042252;28;20107;-80
2021/05/19 07:32:46;;;;;;;8.38;6.47;;;;;;;18.30;41.87;101000.00;5032029;28;20064;-80
2021/05/19 07:35:11;;;;;;;7.75;6.88;;;;;;;18.83;39.86;100994.72;5030815;28;20508;-80
2021/05/19 07:37:37;;;;;;;7.38;6.70;;;;;;;18.55;40.87;100994.41;5031334;28;20025;-80
2021/05/19 07:40:03;;;;;;;7.20;6.50;;;;;;;18.28;41.76;101004.81;5049096;28;20028;-80
2021/05/19 07:42:28;;;;;;;7.45;6.75;;;;;;;18.48;41.28;101002.44;5037957;28;20083;-81
2021/05/19 07:44:54;;;;;;;8.15;7.35;;;;;;;18.78;40.87;100991.69;5035775;28;20427;-81
2021/05/19 07:47:20;;;;;;;7.50;6.60;;;;;;;18.52;41.72;100989.34;5037326;28;20061;-80
2021/05/19 07:49:48;;;;;;;9.25;6.45;;;;;;;18.64;40.63;100987.00;5021075;28;20041;-81
2021/05/19 07:52:17;;;;;;;8.32;6.05;;;;;;;18.99;40.15;100993.72;5025195;28;20485;-81
2021/05/19 07:54:43;;;;;;;7.18;6.50;;;;;;;19.06;39.55;100998.25;5002122;28;20037;-80
2021/05/19 07:57:22;;;;;;;7.35;6.70;;;;;;;18.99;39.27;100993.72;5026110;28;20434;-80
2021/05/19 08:00:06;;;;;;;7.03;5.65;;;;;;;19.28;39.85;100985.59;5038469;28;20440;-80
2021/05/19 08:02:32;;;;;;;5.93;5.28;;;;;;;18.87;38.15;100995.22;5038602;28;20119;-80
2021/05/19 08:04:57;;;;;;;7.95;5.75;;;;;;;18.63;39.36;100991.63;5020630;28;20135;-80
2021/05/19 08:07:23;;;;;;;6.28;5.47;;;;;;;18.86;38.99;101002.53;5036383;28;20028;-80
2021/05/19 08:09:49;;;;;;;7.63;5.65;;;;;;;18.56;38.67;101013.28;5037807;28;20022;-80
2021/05/19 08:12:15;;;;;;;5.70;5.18;;;;;;;19.28;37.68;101003.81;5018884;28;20061;-80
2021/05/19 08:14:40;;;;;;;6.75;6.10;;;;;;;18.74;39.11;101012.19;5019975;28;20056;-80
2021/05/19 08:17:06;;;;;;;7.97;5.20;;;;;;;18.72;38.19;101006.03;5004222;28;20458;-80
2021/05/19 08:19:31;;;;;;;7.07;5.18;;;;;;;19.67;38.50;101010.94;5016958;28;20025;-79
2021/05/19 08:21:56;;;;;;;4.88;4.47;;;;;;;19.65;38.36;101008.41;5029546;28;20022;-80
2021/05/19 08:24:22;;;;;;;7.60;5.45;;;;;;;19.65;37.50;101011.13;5011825;28;20282;-80
2021/05/19 08:26:47;;;;;;;8.20;5.88;;;;;;;19.90;37.36;101008.09;5020885;28;20052;-80
2021/05/19 08:29:13;;;;;;;6.68;5.15;;;;;;;19.57;38.01;100996.72;5002522;28;20041;-79
2021/05/19 08:31:39;;;;;;;7.55;4.50;;;;;;;19.82;37.15;101006.31;5023151;28;20029;-80
2021/05/19 08:34:04;;;;;;;7.22;3.22;;;;;;;19.58;36.69;101003.84;5034443;28;20048;-80
2021/05/19 08:36:31;;;;;;;4.88;3.70;;;;;;;19.32;36.84;100996.16;5032664;28;20384;-80
2021/05/19 08:38:57;;;;;;;4.68;3.70;;;;;;;19.61;37.40;100992.56;5008609;28;20401;-80
2021/05/19 08:41:22;;;;;;;5.10;3.42;;;;;;;19.62;37.04;101000.56;5039013;28;20076;-79
2021/05/19 08:43:48;;;;;;;4.60;4.20;;;;;;;19.95;36.40;100997.44;5040218;28;20442;-81
2021/05/19 08:46:14;;;;;;;4.63;3.70;;;;;;;19.99;36.88;100990.59;5021937;28;20045;-80
2021/05/19 08:48:42;;;;;;;4.60;3.40;;;;;;;20.43;36.24;100997.78;5015712;28;20029;-80
2021/05/19 08:51:08;;;;;;;4.13;3.72;;;;;;;20.04;36.14;100999.03;5044434;28;20048;-80
2021/05/19 08:53:34;;;;;;;13.80;3.50;;;;;;;20.04;35.16;101006.38;5018103;28;20389;-80
2021/05/19 08:56:06;;;;;;;3.58;2.83;;;;;;;19.94;36.17;101004.78;5035494;28;20029;-80
2021/05/19 08:58:32;;;;;;;4.00;3.42;;;;;;;19.65;36.12;101008.41;5038054;28;20033;-80
2021/05/19 09:00:57;;;;;;;5.78;3.90;;;;;;;20.34;35.72;101007.16;5034483;28;20032;-79
2021/05/19 09:03:23;;;;;;;4.13;3.13;;;;;;;20.16;36.36;101008.41;5020406;28;20041;-80
2021/05/19 09:05:49;;;;;;;3.17;2.95;;;;;;;20.23;35.44;101013.09;5043890;28;20373;-80
2021/05/19 09:08:17;;;;;;;4.75;3.50;;;;;;;20.09;36.30;101009.38;5044242;28;20397;-80
2021/05/19 09:11:04;;;;;;;5.05;4.00;;;;;;;19.78;36.76;101017.81;5040825;28;20025;-80
2021/05/19 09:13:29;;;;;;;4.50;3.78;;;;;;;19.55;37.50;101017.88;5019567;28;20171;-80
2021/05/19 09:15:54;;;;;;;5.47;4.18;;;;;;;19.32;38.10;101021.53;5009852;28;20136;-80
2021/05/19 09:18:20;;;;;;;5.10;3.40;;;;;;;19.09;38.51;101020.72;5045521;28;20025;-80
2021/05/19 09:20:50;;;;;;;4.00;3.65;;;;;;;19.88;37.23;101019.19;5027476;28;20030;-80
2021/05/19 09:23:18;;;;;;;5.28;3.83;;;;;;;20.34;36.49;101013.44;5024269;28;20114;-80
2021/05/19 09:25:46;;;;;;;6.13;4.93;;;;;;;19.82;37.14;101011.78;5018520;28;20477;-80
2021/05/19 09:28:24;;;;;;;4.95;4.38;;;;;;;19.79;37.08;101014.03;5029254;28;20036;-80
2021/05/19 09:30:49;;;;;;;7.35;4.57;;;;;;;20.19;36.92;101005.28;5028083;28;20156;-80
2021/05/19 09:33:22;;;;;;;4.55;3.80;;;;;;;19.99;38.11;101004.22;5045267;28;20512;-80
2021/05/19 09:36:21;;;;;;;6.13;4.00;;;;;;;19.33;38.27;101001.41;5028916;28;20039;-80
2021/05/19 09:38:52;;;;;;;5.13;3.58;;;;;;;19.69;38.67;101001.53;5050028;28;20033;-80
2021/05/19 09:41:30;;;;;;;7.55;3.60;;;;;;;19.81;39.10;100990.13;5051302;28;20426;-81
2021/05/19 09:44:00;;;;;;;3.45;3.15;;;;;;;19.70;40.10;100995.03;5050669;28;20376;-80
2021/05/19 09:49:19;;;;;;;7.47;4.03;;;;;;;19.84;39.09;100996.06;5034479;28;20028;-80
2021/05/19 09:51:48;;;;;;;6.32;3.80;;;;;;;20.04;38.18;100992.72;5019706;28;20132;-80
2021/05/19 09:54:32;;;;;;;5.43;3.53;;;;;;;20.25;38.14;100986.47;5027208;28;20033;-79
2021/05/19 09:57:07;;;;;;;4.82;4.18;;;;;;;19.88;38.74;100991.91;5017617;28;20036;-81
2021/05/19 09:59:36;;;;;;;4.40;4.05;;;;;;;19.78;38.07;100990.53;5029633;28;20029;-81
2021/05/19 10:02:02;;;;;;;6.68;3.80;;;;;;;20.41;37.07;100994.41;5019348;28;20072;-80
2021/05/19 10:04:31;;;;;;;6.53;3.50;;;;;;;20.07;37.32;100995.06;5046652;28;20039;-80
2021/05/19 10:06:57;;;;;;;5.55;4.38;;;;;;;20.27;36.64;100987.13;5016702;28;20029;-80
2021/05/19 10:09:26;;;;;;;5.18;4.10;;;;;;;20.68;37.14;100991.97;5043186;28;20391;-80
2021/05/19 10:11:52;;;;;;;3.55;3.03;;;;;;;20.96;36.58;100987.38;5047231;28;20033;-80
2021/05/19 10:14:21;;;;;;;5.55;3.40;;;;;;;20.63;36.61;100990.69;5034195;28;20504;-80
2021/05/19 10:16:50;;;;;;;5.00;3.55;;;;;;;20.70;37.36;100985.25;5032768;28;20032;-80
2021/05/19 10:19:25;;;;;;;3.83;2.90;;;;;;;20.38;37.31;100981.97;5027182;28;20030;-80
2021/05/19 10:21:52;;;;;;;4.43;3.40;;;;;;;20.56;36.64;100989.75;5032865;28;20457;-81
2021/05/19 10:24:17;;;;;;;4.65;3.08;;;;;;;21.02;36.23;100994.78;5023616;28;20464;-79
2021/05/19 10:27:03;;;;;;;3.55;3.25;;;;;;;20.33;36.46;100997.28;5041804;28;20067;-80
2021/05/19 10:29:50;;;;;;;5.03;3.35;;;;;;;20.45;35.25;100995.72;5021780;28;20053;-80
2021/05/19 10:32:21;;;;;;;3.45;2.50;;;;;;;19.74;37.92;101023.66;5029770;28;20049;-80
2021/05/19 10:34:58;;;;;;;3.70;2.42;;;;;;;19.50;48.52;101016.56;5011055;28;20688;-79
2021/05/19 10:37:26;;;;;;;35.95;3.40;;;;;;;19.01;66.70;101018.94;5029089;28;20048;-79
2021/05/19 10:40:07;;;;;;;11.00;3.22;;;;;;;17.03;75.35;101022.72;5029603;28;20507;-79
2021/05/19 10:42:38;;;;;;;7.85;3.00;;;;;;;18.01;66.64;101011.59;5041282;28;20048;-79
2021/05/19 10:45:07;;;;;;;10.43;2.30;;;;;;;18.09;60.93;101007.97;5016893;28;20033;-80
2021/05/19 10:47:33;;;;;;;1.88;1.70;;;;;;;17.92;64.87;101004.50;5027284;28;20036;-79
2021/05/19 10:58:02;;;;;;;6.40;5.80;;;;;;;17.99;63.79;101007.34;5028077;28;20045;-79
2021/05/19 11:00:31;;;;;;;6.05;5.43;;;;;;;18.03;63.93;100998.66;5043054;28;20033;-80
2021/05/19 11:03:04;;;;;;;8.35;6.68;;;;;;;17.89;64.49;100996.69;5038745;28;20051;-81
2021/05/19 11:05:34;;;;;;;12.10;8.82;;;;;;;17.86;62.56;100999.75;5023214;28;20128;-81
2021/05/19 11:08:13;;;;;;;12.60;7.80;;;;;;;17.95;66.69;100995.13;5014220;28;20512;-80
2021/05/19 11:10:47;;;;;;;12.23;7.35;;;;;;;17.99;65.71;100999.19;5047013;28;20045;-80
2021/05/19 11:13:14;;;;;;;16.15;9.90;;;;;;;17.64;66.05;100985.03;5051261;28;20096;-80
2021/05/19 11:18:31;;;;;;;8.00;5.43;;;;;;;17.28;67.54;100999.06;5047990;28;20082;-80
2021/05/19 11:20:59;;;;;;;11.88;9.13;;;;;;;17.78;63.03;100992.47;5033248;28;20075;-80
2021/05/19 11:23:26;;;;;;;11.35;9.60;;;;;;;18.22;67.85;101002.81;5030840;28;20036;-80
2021/05/19 11:26:08;;;;;;;5.80;3.92;;;;;;;17.51;57.88;101001.91;5036126;28;20036;-80
2021/05/19 11:28:33;;;;;;;5.93;4.15;;;;;;;17.83;60.23;101000.13;5046019;28;20029;-80
2021/05/19 11:31:16;;;;;;;6.68;4.82;;;;;;;18.17;62.39;101009.81;5040763;28;20044;-80
2021/05/19 11:33:57;;;;;;;5.15;4.65;;;;;;;17.69;57.38;100993.50;5029718;28;20635;-83
2021/05/19 11:36:36;;;;;;;5.30;4.78;;;;;;;18.16;59.67;101000.81;5021149;28;20044;-82